Terminal Aerodrome Forecast
Issued by NWS Denver/Boulder, CO

Home | Current Version | Previous Version | Text Only | Print | Product List | Glossary On
Versions: 1 2 3 4 5 6 7 8 9 10 11 12 13 14 15 16 17 18 19 20 21 22 23 24 25 26 27 28 29 30 31 32 33 34 35 36 37 38 39 40 41 42 43 44 45 46 47 48 49 50
000
FTUS45 KBOU 241232 AAA
TAFDEN
TAF AMD
KDEN 241232Z 2413/2518 VRB06KT P6SM BKN035 OVC080
     FM241600 04009KT P6SM SCT040 BKN090
     FM242000 07011KT P6SM SCT070 BKN100
     FM250100 12011KT P6SM BKN080
     FM250600 18010KT P6SM BKN070=

USA.gov is the U.S. government's official web portal to all federal, state and local government web resources and services.